sensor_id;sensor_type;location;lat;lon;timestamp;P1;durP1;ratioP1;P2;durP2;ratioP2
73841;SDS011;62184;52.006;5.924;2022-08-11T00:00:37;7.50;;;3.10;;
73841;SDS011;62184;52.006;5.924;2022-08-11T00:03:07;5.53;;;2.90;;
73841;SDS011;62184;52.006;5.924;2022-08-11T00:05:42;5.73;;;2.87;;
73841;SDS011;62184;52.006;5.924;2022-08-11T00:08:10;7.03;;;2.80;;
73841;SDS011;62184;52.006;5.924;2022-08-11T00:10:50;7.47;;;3.40;;
73841;SDS011;62184;52.006;5.924;2022-08-11T00:13:18;8.05;;;2.65;;
73841;SDS011;62184;52.006;5.924;2022-08-11T00:15:50;6.22;;;2.92;;
73841;SDS011;62184;52.006;5.924;2022-08-11T00:18:17;6.40;;;3.37;;
73841;SDS011;62184;52.006;5.924;2022-08-11T00:20:44;7.57;;;3.20;;
73841;SDS011;62184;52.006;5.924;2022-08-11T00:23:14;6.10;;;3.70;;
73841;SDS011;62184;52.006;5.924;2022-08-11T00:25:44;7.00;;;3.13;;
73841;SDS011;62184;52.006;5.924;2022-08-11T00:28:23;8.02;;;3.10;;
73841;SDS011;62184;52.006;5.924;2022-08-11T00:30:57;8.50;;;2.53;;
73841;SDS011;62184;52.006;5.924;2022-08-11T00:33:31;8.30;;;2.95;;
73841;SDS011;62184;52.006;5.924;2022-08-11T00:36:02;4.80;;;2.72;;
73841;SDS011;62184;52.006;5.924;2022-08-11T00:38:37;6.22;;;3.53;;
73841;SDS011;62184;52.006;5.924;2022-08-11T00:41:17;8.30;;;2.92;;
73841;SDS011;62184;52.006;5.924;2022-08-11T00:44:06;5.00;;;3.00;;
73841;SDS011;62184;52.006;5.924;2022-08-11T00:46:54;6.15;;;3.03;;
73841;SDS011;62184;52.006;5.924;2022-08-11T00:49:38;6.03;;;3.28;;
73841;SDS011;62184;52.006;5.924;2022-08-11T00:52:35;5.28;;;3.33;;
73841;SDS011;62184;52.006;5.924;2022-08-11T01:02:19;7.57;;;3.15;;
73841;SDS011;62184;52.006;5.924;2022-08-11T01:08:21;7.18;;;3.08;;
73841;SDS011;62184;52.006;5.924;2022-08-11T01:11:26;5.68;;;3.00;;
73841;SDS011;62184;52.006;5.924;2022-08-11T01:14:28;6.83;;;2.83;;
73841;SDS011;62184;52.006;5.924;2022-08-11T01:18:06;6.15;;;2.97;;
73841;SDS011;62184;52.006;5.924;2022-08-11T01:21:17;6.32;;;4.13;;
73841;SDS011;62184;52.006;5.924;2022-08-11T01:24:40;6.85;;;3.40;;
73841;SDS011;62184;52.006;5.924;2022-08-11T01:31:08;6.10;;;2.90;;
73841;SDS011;62184;52.006;5.924;2022-08-11T01:34:18;6.18;;;3.20;;
73841;SDS011;62184;52.006;5.924;2022-08-11T01:37:52;5.85;;;3.72;;
73841;SDS011;62184;52.006;5.924;2022-08-11T01:40:53;6.68;;;3.80;;
73841;SDS011;62184;52.006;5.924;2022-08-11T01:44:03;7.93;;;3.72;;
73841;SDS011;62184;52.006;5.924;2022-08-11T01:47:15;6.13;;;3.40;;
73841;SDS011;62184;52.006;5.924;2022-08-11T01:49:58;9.73;;;3.53;;
73841;SDS011;62184;52.006;5.924;2022-08-11T01:52:44;10.00;;;4.10;;
73841;SDS011;62184;52.006;5.924;2022-08-11T01:55:31;9.52;;;3.33;;
73841;SDS011;62184;52.006;5.924;2022-08-11T01:58:25;7.10;;;3.50;;
73841;SDS011;62184;52.006;5.924;2022-08-11T02:01:05;6.70;;;3.67;;
73841;SDS011;62184;52.006;5.924;2022-08-11T02:03:56;5.75;;;3.60;;
73841;SDS011;62184;52.006;5.924;2022-08-11T02:06:43;8.45;;;4.07;;
73841;SDS011;62184;52.006;5.924;2022-08-11T02:09:19;7.25;;;4.00;;
73841;SDS011;62184;52.006;5.924;2022-08-11T02:12:14;7.38;;;3.65;;
73841;SDS011;62184;52.006;5.924;2022-08-11T02:15:06;6.50;;;3.50;;
73841;SDS011;62184;52.006;5.924;2022-08-11T02:17:47;6.05;;;3.63;;
73841;SDS011;62184;52.006;5.924;2022-08-11T02:20:29;7.80;;;4.22;;
73841;SDS011;62184;52.006;5.924;2022-08-11T02:23:12;6.22;;;3.88;;
73841;SDS011;62184;52.006;5.924;2022-08-11T02:25:52;6.97;;;3.38;;
73841;SDS011;62184;52.006;5.924;2022-08-11T02:28:30;7.53;;;3.43;;
73841;SDS011;62184;52.006;5.924;2022-08-11T02:31:14;6.97;;;3.45;;
73841;SDS011;62184;52.006;5.924;2022-08-11T02:33:59;7.30;;;3.80;;
73841;SDS011;62184;52.006;5.924;2022-08-11T02:36:54;8.15;;;4.30;;
73841;SDS011;62184;52.006;5.924;2022-08-11T02:39:50;7.50;;;4.72;;
73841;SDS011;62184;52.006;5.924;2022-08-11T02:42:38;7.10;;;4.07;;
73841;SDS011;62184;52.006;5.924;2022-08-11T02:45:28;7.20;;;3.72;;
73841;SDS011;62184;52.006;5.924;2022-08-11T02:48:12;6.32;;;3.60;;
73841;SDS011;62184;52.006;5.924;2022-08-11T02:51:02;8.20;;;4.43;;
73841;SDS011;62184;52.006;5.924;2022-08-11T02:53:46;7.47;;;4.68;;
73841;SDS011;62184;52.006;5.924;2022-08-11T02:56:36;7.47;;;4.07;;
73841;SDS011;62184;52.006;5.924;2022-08-11T02:59:19;7.15;;;4.13;;
73841;SDS011;62184;52.006;5.924;2022-08-11T03:01:57;5.82;;;3.75;;
73841;SDS011;62184;52.006;5.924;2022-08-11T03:04:35;7.00;;;4.30;;
73841;SDS011;62184;52.006;5.924;2022-08-11T03:07:24;6.55;;;3.95;;
73841;SDS011;62184;52.006;5.924;2022-08-11T03:10:02;6.97;;;3.70;;
73841;SDS011;62184;52.006;5.924;2022-08-11T03:12:39;7.85;;;3.70;;
73841;SDS011;62184;52.006;5.924;2022-08-11T03:15:18;6.40;;;3.85;;
73841;SDS011;62184;52.006;5.924;2022-08-11T03:17:56;6.80;;;3.92;;
73841;SDS011;62184;52.006;5.924;2022-08-11T03:20:38;6.38;;;3.78;;
73841;SDS011;62184;52.006;5.924;2022-08-11T03:23:17;6.77;;;3.70;;
73841;SDS011;62184;52.006;5.924;2022-08-11T03:25:57;6.32;;;3.55;;
73841;SDS011;62184;52.006;5.924;2022-08-11T03:28:35;7.57;;;3.97;;
73841;SDS011;62184;52.006;5.924;2022-08-11T03:31:15;7.03;;;4.03;;
73841;SDS011;62184;52.006;5.924;2022-08-11T03:33:51;8.00;;;4.10;;
73841;SDS011;62184;52.006;5.924;2022-08-11T03:39:27;7.13;;;3.88;;
73841;SDS011;62184;52.006;5.924;2022-08-11T03:42:11;7.22;;;3.97;;
73841;SDS011;62184;52.006;5.924;2022-08-11T03:47:59;6.82;;;4.47;;
73841;SDS011;62184;52.006;5.924;2022-08-11T03:50:54;7.23;;;4.07;;
73841;SDS011;62184;52.006;5.924;2022-08-11T03:53:40;10.57;;;4.93;;
73841;SDS011;62184;52.006;5.924;2022-08-11T04:09:59;7.82;;;4.43;;
73841;SDS011;62184;52.006;5.924;2022-08-11T04:13:05;10.10;;;4.72;;
73841;SDS011;62184;52.006;5.924;2022-08-11T04:16:07;7.72;;;4.53;;
73841;SDS011;62184;52.006;5.924;2022-08-11T04:22:34;8.00;;;4.10;;
73841;SDS011;62184;52.006;5.924;2022-08-11T04:25:51;7.47;;;4.50;;
73841;SDS011;62184;52.006;5.924;2022-08-11T04:28:53;7.28;;;3.92;;
73841;SDS011;62184;52.006;5.924;2022-08-11T04:31:32;6.95;;;4.00;;
73841;SDS011;62184;52.006;5.924;2022-08-11T04:34:23;11.73;;;4.82;;
73841;SDS011;62184;52.006;5.924;2022-08-11T04:37:35;7.80;;;4.17;;
73841;SDS011;62184;52.006;5.924;2022-08-11T04:40:32;8.30;;;4.00;;
73841;SDS011;62184;52.006;5.924;2022-08-11T04:43:42;8.05;;;4.40;;
73841;SDS011;62184;52.006;5.924;2022-08-11T04:46:51;6.00;;;3.90;;
73841;SDS011;62184;52.006;5.924;2022-08-11T04:49:57;7.40;;;4.55;;
73841;SDS011;62184;52.006;5.924;2022-08-11T04:53:00;8.57;;;4.07;;
73841;SDS011;62184;52.006;5.924;2022-08-11T04:56:01;9.50;;;4.78;;
73841;SDS011;62184;52.006;5.924;2022-08-11T04:58:45;8.13;;;4.18;;
73841;SDS011;62184;52.006;5.924;2022-08-11T05:01:36;7.38;;;4.20;;
73841;SDS011;62184;52.006;5.924;2022-08-11T05:04:45;7.68;;;4.03;;
73841;SDS011;62184;52.006;5.924;2022-08-11T05:10:47;7.25;;;3.85;;
73841;SDS011;62184;52.006;5.924;2022-08-11T05:13:31;6.75;;;3.40;;
73841;SDS011;62184;52.006;5.924;2022-08-11T05:16:03;8.00;;;4.35;;
73841;SDS011;62184;52.006;5.924;2022-08-11T05:18:37;6.03;;;3.38;;
73841;SDS011;62184;52.006;5.924;2022-08-11T05:21:16;7.10;;;3.90;;
73841;SDS011;62184;52.006;5.924;2022-08-11T05:23:52;8.20;;;3.60;;
73841;SDS011;62184;52.006;5.924;2022-08-11T05:26:28;8.13;;;4.15;;
73841;SDS011;62184;52.006;5.924;2022-08-11T05:29:05;7.47;;;3.50;;
73841;SDS011;62184;52.006;5.924;2022-08-11T05:31:54;6.93;;;3.80;;
73841;SDS011;62184;52.006;5.924;2022-08-11T05:34:25;8.67;;;3.67;;
73841;SDS011;62184;52.006;5.924;2022-08-11T05:37:03;7.38;;;4.18;;
73841;SDS011;62184;52.006;5.924;2022-08-11T05:39:40;6.32;;;3.65;;
73841;SDS011;62184;52.006;5.924;2022-08-11T05:42:12;7.68;;;3.40;;
73841;SDS011;62184;52.006;5.924;2022-08-11T05:44:46;5.50;;;3.50;;
73841;SDS011;62184;52.006;5.924;2022-08-11T05:47:20;10.67;;;3.90;;
73841;SDS011;62184;52.006;5.924;2022-08-11T05:49:49;6.60;;;4.18;;
73841;SDS011;62184;52.006;5.924;2022-08-11T05:52:22;6.72;;;3.95;;
73841;SDS011;62184;52.006;5.924;2022-08-11T05:54:53;7.05;;;3.55;;
73841;SDS011;62184;52.006;5.924;2022-08-11T05:57:30;6.55;;;3.80;;
73841;SDS011;62184;52.006;5.924;2022-08-11T06:00:03;6.73;;;3.53;;
73841;SDS011;62184;52.006;5.924;2022-08-11T06:02:32;7.45;;;3.60;;
73841;SDS011;62184;52.006;5.924;2022-08-11T06:05:07;5.72;;;3.25;;
73841;SDS011;62184;52.006;5.924;2022-08-11T06:07:38;6.20;;;2.78;;
73841;SDS011;62184;52.006;5.924;2022-08-11T06:10:07;6.18;;;3.05;;
73841;SDS011;62184;52.006;5.924;2022-08-11T06:12:35;5.43;;;3.07;;
73841;SDS011;62184;52.006;5.924;2022-08-11T06:15:03;6.88;;;3.13;;
73841;SDS011;62184;52.006;5.924;2022-08-11T06:17:35;5.43;;;3.13;;
73841;SDS011;62184;52.006;5.924;2022-08-11T06:20:10;6.25;;;3.22;;
73841;SDS011;62184;52.006;5.924;2022-08-11T06:22:43;7.28;;;3.53;;
73841;SDS011;62184;52.006;5.924;2022-08-11T06:25:19;7.40;;;2.90;;
73841;SDS011;62184;52.006;5.924;2022-08-11T06:27:53;6.50;;;3.10;;
73841;SDS011;62184;52.006;5.924;2022-08-11T06:30:27;7.82;;;3.00;;
73841;SDS011;62184;52.006;5.924;2022-08-11T06:33:00;6.57;;;3.17;;
73841;SDS011;62184;52.006;5.924;2022-08-11T06:35:35;7.35;;;2.97;;
73841;SDS011;62184;52.006;5.924;2022-08-11T06:38:18;6.80;;;3.03;;
73841;SDS011;62184;52.006;5.924;2022-08-11T06:41:03;5.15;;;2.75;;
73841;SDS011;62184;52.006;5.924;2022-08-11T06:43:46;5.68;;;2.80;;
73841;SDS011;62184;52.006;5.924;2022-08-11T06:46:25;4.65;;;2.75;;
73841;SDS011;62184;52.006;5.924;2022-08-11T06:48:54;6.32;;;2.90;;
73841;SDS011;62184;52.006;5.924;2022-08-11T06:51:25;6.20;;;2.33;;
73841;SDS011;62184;52.006;5.924;2022-08-11T06:53:57;5.65;;;2.72;;
73841;SDS011;62184;52.006;5.924;2022-08-11T06:56:27;6.75;;;2.65;;
73841;SDS011;62184;52.006;5.924;2022-08-11T06:58:57;5.17;;;2.63;;
73841;SDS011;62184;52.006;5.924;2022-08-11T07:01:31;6.25;;;3.30;;
73841;SDS011;62184;52.006;5.924;2022-08-11T07:04:09;5.17;;;2.60;;
73841;SDS011;62184;52.006;5.924;2022-08-11T07:06:46;8.00;;;3.35;;
73841;SDS011;62184;52.006;5.924;2022-08-11T07:09:32;7.18;;;3.10;;
73841;SDS011;62184;52.006;5.924;2022-08-11T07:12:36;5.25;;;2.60;;
73841;SDS011;62184;52.006;5.924;2022-08-11T07:15:07;7.28;;;2.85;;
73841;SDS011;62184;52.006;5.924;2022-08-11T07:17:38;7.10;;;3.70;;
73841;SDS011;62184;52.006;5.924;2022-08-11T07:20:11;8.57;;;3.50;;
73841;SDS011;62184;52.006;5.924;2022-08-11T07:22:38;5.75;;;3.80;;
73841;SDS011;62184;52.006;5.924;2022-08-11T07:25:13;5.43;;;2.63;;
73841;SDS011;62184;52.006;5.924;2022-08-11T07:27:42;7.03;;;3.15;;
73841;SDS011;62184;52.006;5.924;2022-08-11T07:30:12;6.37;;;2.80;;
73841;SDS011;62184;52.006;5.924;2022-08-11T07:32:40;4.85;;;2.65;;
73841;SDS011;62184;52.006;5.924;2022-08-11T07:35:15;7.53;;;3.03;;
73841;SDS011;62184;52.006;5.924;2022-08-11T07:37:47;5.78;;;3.20;;
73841;SDS011;62184;52.006;5.924;2022-08-11T07:40:31;7.45;;;3.38;;
73841;SDS011;62184;52.006;5.924;2022-08-11T07:42:59;6.97;;;3.00;;
73841;SDS011;62184;52.006;5.924;2022-08-11T07:45:28;5.95;;;3.00;;
73841;SDS011;62184;52.006;5.924;2022-08-11T07:47:56;5.82;;;3.45;;
73841;SDS011;62184;52.006;5.924;2022-08-11T07:50:25;5.85;;;2.70;;
73841;SDS011;62184;52.006;5.924;2022-08-11T07:52:52;6.85;;;3.38;;
73841;SDS011;62184;52.006;5.924;2022-08-11T07:55:20;7.20;;;3.17;;
73841;SDS011;62184;52.006;5.924;2022-08-11T07:57:52;7.40;;;3.20;;
73841;SDS011;62184;52.006;5.924;2022-08-11T08:00:19;8.40;;;3.25;;
73841;SDS011;62184;52.006;5.924;2022-08-11T08:02:46;6.60;;;3.30;;
73841;SDS011;62184;52.006;5.924;2022-08-11T08:05:13;7.07;;;3.42;;
73841;SDS011;62184;52.006;5.924;2022-08-11T08:07:42;6.27;;;2.80;;
73841;SDS011;62184;52.006;5.924;2022-08-11T08:10:09;5.25;;;3.22;;
73841;SDS011;62184;52.006;5.924;2022-08-11T08:12:36;6.70;;;3.50;;
73841;SDS011;62184;52.006;5.924;2022-08-11T08:15:08;5.20;;;2.90;;
73841;SDS011;62184;52.006;5.924;2022-08-11T08:17:39;6.40;;;2.90;;
73841;SDS011;62184;52.006;5.924;2022-08-11T08:20:10;7.20;;;3.30;;
73841;SDS011;62184;52.006;5.924;2022-08-11T08:22:39;5.45;;;3.42;;
73841;SDS011;62184;52.006;5.924;2022-08-11T08:25:06;6.55;;;3.30;;
73841;SDS011;62184;52.006;5.924;2022-08-11T08:27:35;5.43;;;3.38;;
73841;SDS011;62184;52.006;5.924;2022-08-11T08:30:04;6.78;;;3.40;;
73841;SDS011;62184;52.006;5.924;2022-08-11T08:32:37;5.47;;;3.30;;
73841;SDS011;62184;52.006;5.924;2022-08-11T08:35:06;7.82;;;3.55;;
73841;SDS011;62184;52.006;5.924;2022-08-11T08:37:35;6.57;;;3.47;;
73841;SDS011;62184;52.006;5.924;2022-08-11T08:40:03;6.07;;;2.88;;
73841;SDS011;62184;52.006;5.924;2022-08-11T08:42:36;6.30;;;3.35;;
73841;SDS011;62184;52.006;5.924;2022-08-11T08:45:13;6.63;;;3.23;;
73841;SDS011;62184;52.006;5.924;2022-08-11T08:47:40;5.65;;;3.42;;
73841;SDS011;62184;52.006;5.924;2022-08-11T08:50:12;6.85;;;3.58;;
73841;SDS011;62184;52.006;5.924;2022-08-11T08:52:44;6.95;;;3.67;;
73841;SDS011;62184;52.006;5.924;2022-08-11T08:55:19;7.38;;;3.58;;
73841;SDS011;62184;52.006;5.924;2022-08-11T08:57:47;7.87;;;3.37;;
73841;SDS011;62184;52.006;5.924;2022-08-11T09:00:19;6.07;;;3.47;;
73841;SDS011;62184;52.006;5.924;2022-08-11T09:02:47;8.15;;;3.80;;
73841;SDS011;62184;52.006;5.924;2022-08-11T09:05:16;7.10;;;3.35;;
73841;SDS011;62184;52.006;5.924;2022-08-11T09:07:45;5.47;;;3.28;;
73841;SDS011;62184;52.006;5.924;2022-08-11T09:10:18;7.43;;;3.30;;
73841;SDS011;62184;52.006;5.924;2022-08-11T09:12:45;8.77;;;3.60;;
73841;SDS011;62184;52.006;5.924;2022-08-11T09:15:13;5.85;;;3.13;;
73841;SDS011;62184;52.006;5.924;2022-08-11T09:17:45;7.20;;;3.30;;
73841;SDS011;62184;52.006;5.924;2022-08-11T09:20:17;6.75;;;3.58;;
73841;SDS011;62184;52.006;5.924;2022-08-11T09:22:48;5.97;;;2.63;;
73841;SDS011;62184;52.006;5.924;2022-08-11T09:25:20;6.50;;;3.20;;
73841;SDS011;62184;52.006;5.924;2022-08-11T09:27:52;6.00;;;3.80;;
73841;SDS011;62184;52.006;5.924;2022-08-11T09:30:20;7.07;;;3.55;;
73841;SDS011;62184;52.006;5.924;2022-08-11T09:32:50;5.90;;;3.78;;
73841;SDS011;62184;52.006;5.924;2022-08-11T09:35:19;5.00;;;3.00;;
73841;SDS011;62184;52.006;5.924;2022-08-11T09:37:46;7.75;;;3.55;;
73841;SDS011;62184;52.006;5.924;2022-08-11T09:40:14;7.35;;;3.80;;
73841;SDS011;62184;52.006;5.924;2022-08-11T09:42:41;5.30;;;3.67;;
73841;SDS011;62184;52.006;5.924;2022-08-11T09:45:10;7.10;;;3.95;;
73841;SDS011;62184;52.006;5.924;2022-08-11T09:47:38;7.63;;;3.80;;
73841;SDS011;62184;52.006;5.924;2022-08-11T09:50:10;6.75;;;3.50;;
73841;SDS011;62184;52.006;5.924;2022-08-11T09:52:40;8.27;;;3.95;;
73841;SDS011;62184;52.006;5.924;2022-08-11T09:55:10;6.82;;;3.20;;
73841;SDS011;62184;52.006;5.924;2022-08-11T09:57:40;5.68;;;3.30;;
73841;SDS011;62184;52.006;5.924;2022-08-11T10:00:11;5.50;;;3.43;;
73841;SDS011;62184;52.006;5.924;2022-08-11T10:02:40;6.57;;;3.67;;
73841;SDS011;62184;52.006;5.924;2022-08-11T10:05:13;5.80;;;3.40;;
73841;SDS011;62184;52.006;5.924;2022-08-11T10:07:44;5.50;;;3.30;;
73841;SDS011;62184;52.006;5.924;2022-08-11T10:10:16;7.43;;;3.75;;
73841;SDS011;62184;52.006;5.924;2022-08-11T10:12:45;6.07;;;3.30;;
73841;SDS011;62184;52.006;5.924;2022-08-11T10:15:17;5.85;;;3.30;;
73841;SDS011;62184;52.006;5.924;2022-08-11T10:17:46;5.13;;;3.00;;
73841;SDS011;62184;52.006;5.924;2022-08-11T10:20:23;4.82;;;2.97;;
73841;SDS011;62184;52.006;5.924;2022-08-11T10:22:50;4.70;;;2.75;;
73841;SDS011;62184;52.006;5.924;2022-08-11T10:25:17;5.33;;;2.83;;
73841;SDS011;62184;52.006;5.924;2022-08-11T10:27:44;5.35;;;2.70;;
73841;SDS011;62184;52.006;5.924;2022-08-11T10:30:12;5.40;;;3.45;;
73841;SDS011;62184;52.006;5.924;2022-08-11T10:32:39;5.32;;;3.03;;
73841;SDS011;62184;52.006;5.924;2022-08-11T10:35:06;6.18;;;3.33;;
73841;SDS011;62184;52.006;5.924;2022-08-11T10:37:37;7.23;;;3.17;;
73841;SDS011;62184;52.006;5.924;2022-08-11T10:40:07;5.05;;;3.03;;
73841;SDS011;62184;52.006;5.924;2022-08-11T10:42:38;6.03;;;3.35;;
73841;SDS011;62184;52.006;5.924;2022-08-11T10:45:05;6.82;;;2.72;;
73841;SDS011;62184;52.006;5.924;2022-08-11T10:47:34;7.05;;;3.40;;
73841;SDS011;62184;52.006;5.924;2022-08-11T10:50:01;5.87;;;3.00;;
73841;SDS011;62184;52.006;5.924;2022-08-11T10:52:37;6.40;;;2.80;;
73841;SDS011;62184;52.006;5.924;2022-08-11T10:55:05;4.95;;;3.17;;
73841;SDS011;62184;52.006;5.924;2022-08-11T10:57:33;6.47;;;2.60;;
73841;SDS011;62184;52.006;5.924;2022-08-11T10:59:59;7.05;;;3.40;;
73841;SDS011;62184;52.006;5.924;2022-08-11T11:02:27;5.90;;;2.67;;
73841;SDS011;62184;52.006;5.924;2022-08-11T11:04:58;7.53;;;2.83;;
73841;SDS011;62184;52.006;5.924;2022-08-11T11:07:38;7.00;;;2.75;;
73841;SDS011;62184;52.006;5.924;2022-08-11T11:10:15;5.25;;;2.80;;
73841;SDS011;62184;52.006;5.924;2022-08-11T11:12:42;6.93;;;3.13;;
73841;SDS011;62184;52.006;5.924;2022-08-11T11:15:12;6.07;;;2.60;;
73841;SDS011;62184;52.006;5.924;2022-08-11T11:17:44;5.45;;;2.60;;
73841;SDS011;62184;52.006;5.924;2022-08-11T11:20:18;7.53;;;3.58;;
73841;SDS011;62184;52.006;5.924;2022-08-11T11:23:00;5.38;;;2.65;;
73841;SDS011;62184;52.006;5.924;2022-08-11T11:25:35;5.22;;;2.72;;
73841;SDS011;62184;52.006;5.924;2022-08-11T11:28:25;6.40;;;2.60;;
73841;SDS011;62184;52.006;5.924;2022-08-11T11:31:11;5.95;;;2.70;;
73841;SDS011;62184;52.006;5.924;2022-08-11T11:33:57;4.80;;;2.88;;
73841;SDS011;62184;52.006;5.924;2022-08-11T11:36:44;4.95;;;2.40;;
73841;SDS011;62184;52.006;5.924;2022-08-11T11:39:18;4.55;;;3.00;;
73841;SDS011;62184;52.006;5.924;2022-08-11T11:41:47;6.97;;;2.60;;
73841;SDS011;62184;52.006;5.924;2022-08-11T11:44:18;6.40;;;2.40;;
73841;SDS011;62184;52.006;5.924;2022-08-11T11:46:46;4.50;;;2.20;;
73841;SDS011;62184;52.006;5.924;2022-08-11T11:49:13;5.28;;;2.50;;
73841;SDS011;62184;52.006;5.924;2022-08-11T11:51:45;4.97;;;2.47;;
73841;SDS011;62184;52.006;5.924;2022-08-11T11:54:13;5.17;;;2.50;;
73841;SDS011;62184;52.006;5.924;2022-08-11T11:56:46;4.43;;;2.30;;
73841;SDS011;62184;52.006;5.924;2022-08-11T11:59:13;7.03;;;2.80;;
73841;SDS011;62184;52.006;5.924;2022-08-11T12:01:40;4.40;;;2.58;;
73841;SDS011;62184;52.006;5.924;2022-08-11T12:04:08;4.50;;;2.30;;
73841;SDS011;62184;52.006;5.924;2022-08-11T12:06:40;5.70;;;2.10;;
73841;SDS011;62184;52.006;5.924;2022-08-11T12:09:08;6.15;;;2.90;;
73841;SDS011;62184;52.006;5.924;2022-08-11T12:11:40;6.35;;;2.88;;
73841;SDS011;62184;52.006;5.924;2022-08-11T12:14:08;5.22;;;2.67;;
73841;SDS011;62184;52.006;5.924;2022-08-11T12:16:36;5.05;;;2.80;;
73841;SDS011;62184;52.006;5.924;2022-08-11T12:19:06;7.23;;;2.57;;
73841;SDS011;62184;52.006;5.924;2022-08-11T12:21:36;4.95;;;2.45;;
73841;SDS011;62184;52.006;5.924;2022-08-11T12:24:05;6.57;;;2.50;;
73841;SDS011;62184;52.006;5.924;2022-08-11T12:26:32;5.78;;;2.88;;
73841;SDS011;62184;52.006;5.924;2022-08-11T12:29:03;5.00;;;2.97;;
73841;SDS011;62184;52.006;5.924;2022-08-11T12:31:32;6.00;;;2.60;;
73841;SDS011;62184;52.006;5.924;2022-08-11T12:34:02;5.78;;;2.97;;
73841;SDS011;62184;52.006;5.924;2022-08-11T12:36:32;18.95;;;3.70;;
73841;SDS011;62184;52.006;5.924;2022-08-11T12:39:04;6.55;;;2.78;;
73841;SDS011;62184;52.006;5.924;2022-08-11T12:41:34;5.90;;;2.50;;
73841;SDS011;62184;52.006;5.924;2022-08-11T12:44:05;5.30;;;2.30;;
73841;SDS011;62184;52.006;5.924;2022-08-11T12:46:36;5.30;;;2.50;;
73841;SDS011;62184;52.006;5.924;2022-08-11T12:49:09;5.38;;;2.50;;
73841;SDS011;62184;52.006;5.924;2022-08-11T12:51:40;6.15;;;2.70;;
73841;SDS011;62184;52.006;5.924;2022-08-11T12:54:13;5.18;;;2.38;;
73841;SDS011;62184;52.006;5.924;2022-08-11T12:56:49;4.80;;;2.50;;
73841;SDS011;62184;52.006;5.924;2022-08-11T12:59:27;5.28;;;2.42;;
73841;SDS011;62184;52.006;5.924;2022-08-11T13:01:55;5.00;;;2.58;;
73841;SDS011;62184;52.006;5.924;2022-08-11T13:04:22;5.22;;;2.40;;
73841;SDS011;62184;52.006;5.924;2022-08-11T13:06:50;4.97;;;2.78;;
73841;SDS011;62184;52.006;5.924;2022-08-11T13:09:17;6.40;;;2.30;;
73841;SDS011;62184;52.006;5.924;2022-08-11T13:11:45;5.55;;;2.20;;
73841;SDS011;62184;52.006;5.924;2022-08-11T13:14:12;5.13;;;2.20;;
73841;SDS011;62184;52.006;5.924;2022-08-11T13:16:44;5.65;;;2.20;;
73841;SDS011;62184;52.006;5.924;2022-08-11T13:19:13;5.93;;;2.50;;
73841;SDS011;62184;52.006;5.924;2022-08-11T13:21:39;6.40;;;2.40;;
73841;SDS011;62184;52.006;5.924;2022-08-11T13:24:06;5.07;;;2.40;;
73841;SDS011;62184;52.006;5.924;2022-08-11T13:26:33;4.95;;;2.85;;
73841;SDS011;62184;52.006;5.924;2022-08-11T13:29:02;11.07;;;2.70;;
73841;SDS011;62184;52.006;5.924;2022-08-11T13:31:30;7.57;;;2.95;;
73841;SDS011;62184;52.006;5.924;2022-08-11T13:34:00;5.23;;;2.50;;
73841;SDS011;62184;52.006;5.924;2022-08-11T13:36:28;6.57;;;2.55;;
73841;SDS011;62184;52.006;5.924;2022-08-11T13:38:55;6.20;;;2.72;;
73841;SDS011;62184;52.006;5.924;2022-08-11T13:41:23;4.97;;;2.30;;
73841;SDS011;62184;52.006;5.924;2022-08-11T13:43:51;4.40;;;2.70;;
73841;SDS011;62184;52.006;5.924;2022-08-11T13:46:20;7.00;;;2.77;;
73841;SDS011;62184;52.006;5.924;2022-08-11T13:48:50;6.43;;;2.50;;
73841;SDS011;62184;52.006;5.924;2022-08-11T13:51:24;5.60;;;2.50;;
73841;SDS011;62184;52.006;5.924;2022-08-11T13:53:52;4.95;;;2.63;;
73841;SDS011;62184;52.006;5.924;2022-08-11T13:56:20;4.93;;;2.25;;
73841;SDS011;62184;52.006;5.924;2022-08-11T13:58:48;6.50;;;2.47;;
73841;SDS011;62184;52.006;5.924;2022-08-11T14:01:17;5.78;;;2.40;;
73841;SDS011;62184;52.006;5.924;2022-08-11T14:03:46;4.40;;;2.40;;
73841;SDS011;62184;52.006;5.924;2022-08-11T14:06:16;7.03;;;2.70;;
73841;SDS011;62184;52.006;5.924;2022-08-11T14:08:49;6.13;;;2.30;;
73841;SDS011;62184;52.006;5.924;2022-08-11T14:11:18;5.30;;;2.20;;
73841;SDS011;62184;52.006;5.924;2022-08-11T14:13:46;5.45;;;2.70;;
73841;SDS011;62184;52.006;5.924;2022-08-11T14:16:18;4.60;;;2.45;;
73841;SDS011;62184;52.006;5.924;2022-08-11T14:18:51;6.35;;;2.47;;
73841;SDS011;62184;52.006;5.924;2022-08-11T14:21:23;4.97;;;2.75;;
73841;SDS011;62184;52.006;5.924;2022-08-11T14:23:52;6.30;;;2.60;;
73841;SDS011;62184;52.006;5.924;2022-08-11T14:26:20;4.78;;;2.63;;
73841;SDS011;62184;52.006;5.924;2022-08-11T14:28:48;5.70;;;2.85;;
73841;SDS011;62184;52.006;5.924;2022-08-11T14:31:16;4.75;;;2.60;;
73841;SDS011;62184;52.006;5.924;2022-08-11T14:33:44;6.40;;;2.67;;
73841;SDS011;62184;52.006;5.924;2022-08-11T14:36:12;5.40;;;2.60;;
73841;SDS011;62184;52.006;5.924;2022-08-11T14:38:40;5.57;;;2.60;;
73841;SDS011;62184;52.006;5.924;2022-08-11T14:41:10;8.65;;;2.95;;
73841;SDS011;62184;52.006;5.924;2022-08-11T14:43:37;4.65;;;2.50;;
73841;SDS011;62184;52.006;5.924;2022-08-11T14:46:05;6.32;;;2.63;;
73841;SDS011;62184;52.006;5.924;2022-08-11T14:48:32;5.17;;;2.20;;
73841;SDS011;62184;52.006;5.924;2022-08-11T14:51:00;5.35;;;2.55;;
73841;SDS011;62184;52.006;5.924;2022-08-11T14:53:27;5.90;;;3.00;;
73841;SDS011;62184;52.006;5.924;2022-08-11T14:55:53;6.32;;;2.80;;
73841;SDS011;62184;52.006;5.924;2022-08-11T14:58:23;4.65;;;2.60;;
73841;SDS011;62184;52.006;5.924;2022-08-11T15:00:53;5.67;;;2.57;;
73841;SDS011;62184;52.006;5.924;2022-08-11T15:03:23;5.40;;;2.30;;
73841;SDS011;62184;52.006;5.924;2022-08-11T15:05:55;4.75;;;2.28;;
73841;SDS011;62184;52.006;5.924;2022-08-11T15:08:25;5.75;;;2.50;;
73841;SDS011;62184;52.006;5.924;2022-08-11T15:10:54;6.45;;;2.80;;
73841;SDS011;62184;52.006;5.924;2022-08-11T15:13:23;5.73;;;2.47;;
73841;SDS011;62184;52.006;5.924;2022-08-11T15:16:01;4.47;;;2.42;;
73841;SDS011;62184;52.006;5.924;2022-08-11T15:18:37;5.82;;;2.70;;
73841;SDS011;62184;52.006;5.924;2022-08-11T15:21:04;6.15;;;2.88;;
73841;SDS011;62184;52.006;5.924;2022-08-11T15:23:31;4.22;;;2.17;;
73841;SDS011;62184;52.006;5.924;2022-08-11T15:25:58;4.70;;;2.30;;
73841;SDS011;62184;52.006;5.924;2022-08-11T15:28:33;4.72;;;2.50;;
73841;SDS011;62184;52.006;5.924;2022-08-11T15:31:04;4.80;;;2.50;;
73841;SDS011;62184;52.006;5.924;2022-08-11T15:33:31;4.90;;;2.30;;
73841;SDS011;62184;52.006;5.924;2022-08-11T15:36:04;4.97;;;2.55;;
73841;SDS011;62184;52.006;5.924;2022-08-11T15:38:35;4.40;;;2.30;;
73841;SDS011;62184;52.006;5.924;2022-08-11T15:41:12;4.80;;;2.50;;
73841;SDS011;62184;52.006;5.924;2022-08-11T15:43:46;5.20;;;2.80;;
73841;SDS011;62184;52.006;5.924;2022-08-11T15:46:24;7.05;;;2.33;;
73841;SDS011;62184;52.006;5.924;2022-08-11T15:48:58;5.65;;;2.40;;
73841;SDS011;62184;52.006;5.924;2022-08-11T15:51:31;5.87;;;2.47;;
73841;SDS011;62184;52.006;5.924;2022-08-11T15:54:02;6.10;;;2.60;;
73841;SDS011;62184;52.006;5.924;2022-08-11T15:56:35;5.40;;;2.33;;
73841;SDS011;62184;52.006;5.924;2022-08-11T15:59:07;4.80;;;2.55;;
73841;SDS011;62184;52.006;5.924;2022-08-11T16:01:39;4.72;;;2.70;;
73841;SDS011;62184;52.006;5.924;2022-08-11T16:04:19;4.40;;;2.83;;
73841;SDS011;62184;52.006;5.924;2022-08-11T16:06:51;5.45;;;2.72;;
73841;SDS011;62184;52.006;5.924;2022-08-11T16:09:26;6.60;;;3.00;;
73841;SDS011;62184;52.006;5.924;2022-08-11T16:11:59;5.30;;;3.08;;
73841;SDS011;62184;52.006;5.924;2022-08-11T16:14:33;4.80;;;2.78;;
73841;SDS011;62184;52.006;5.924;2022-08-11T16:17:05;5.80;;;2.60;;
73841;SDS011;62184;52.006;5.924;2022-08-11T16:19:35;5.57;;;2.58;;